createdAt,value
2018-03-16T00:00:15.055Z,12.57
2018-03-16T00:02:44.065Z,13.30
2018-03-16T00:05:12.324Z,14.00
2018-03-16T00:07:40.637Z,13.80
2018-03-16T00:10:08.891Z,12.93
2018-03-16T00:12:37.141Z,12.53
2018-03-16T00:15:05.418Z,14.10
2018-03-16T00:17:33.674Z,12.70
2018-03-16T00:20:01.930Z,13.43
2018-03-16T00:22:45.566Z,13.97
2018-03-16T00:25:13.796Z,14.50
2018-03-16T00:27:42.046Z,13.40
2018-03-16T00:30:10.317Z,12.63
2018-03-16T00:32:38.570Z,13.10
2018-03-16T00:35:06.822Z,14.30
2018-03-16T00:37:35.097Z,14.00
2018-03-16T00:40:03.349Z,13.67
2018-03-16T00:42:32.209Z,14.50
2018-03-16T00:45:00.714Z,14.57
2018-03-16T00:47:28.956Z,13.57
2018-03-16T00:49:57.197Z,14.40
2018-03-16T00:52:25.474Z,14.80
2018-03-16T00:54:53.717Z,14.17
2018-03-16T00:57:21.957Z,14.97
2018-03-16T00:59:50.234Z,14.60
2018-03-16T01:02:18.481Z,15.00
2018-03-16T01:04:46.725Z,15.23
2018-03-16T01:07:16.086Z,15.73
2018-03-16T01:09:44.333Z,14.50
2018-03-16T01:12:12.625Z,14.50
2018-03-16T01:14:42.086Z,16.03
2018-03-16T01:17:11.097Z,16.03
2018-03-16T01:19:39.343Z,15.30
2018-03-16T01:22:07.609Z,15.93
2018-03-16T01:24:35.858Z,15.30
2018-03-16T01:27:04.109Z,15.70
2018-03-16T01:29:32.718Z,16.03
2018-03-16T01:32:00.969Z,15.63
2018-03-16T01:34:29.209Z,14.93
2018-03-16T01:36:57.474Z,15.27
2018-03-16T01:39:25.725Z,15.97
2018-03-16T01:41:53.996Z,16.90
2018-03-16T01:44:22.665Z,17.27
2018-03-16T01:46:50.912Z,17.20
2018-03-16T01:49:19.157Z,16.23
2018-03-16T01:51:47.637Z,16.40
2018-03-16T01:54:15.876Z,16.40
2018-03-16T01:56:44.130Z,16.37
2018-03-16T01:59:12.602Z,17.93
2018-03-16T02:01:41.616Z,18.33
2018-03-16T02:04:10.621Z,18.17
2018-03-16T02:06:38.898Z,19.17
2018-03-16T02:09:07.145Z,18.50
2018-03-16T02:11:35.387Z,18.97
2018-03-16T02:14:03.849Z,18.90
2018-03-16T02:16:32.095Z,18.50
2018-03-16T02:19:00.422Z,18.30
2018-03-16T02:21:28.698Z,17.90
2018-03-16T02:23:56.921Z,16.80
2018-03-16T02:26:25.358Z,18.23
2018-03-16T02:28:53.634Z,17.80
2018-03-16T02:31:21.877Z,18.90
2018-03-16T02:33:50.128Z,18.60
2018-03-16T02:36:18.650Z,18.90
2018-03-16T02:38:46.902Z,18.03
2018-03-16T02:41:15.142Z,18.60
2018-03-16T02:43:43.417Z,19.10
2018-03-16T02:46:11.834Z,18.50
2018-03-16T02:48:40.078Z,19.73
2018-03-16T02:51:08.678Z,17.10
2018-03-16T02:53:36.922Z,18.83
2018-03-16T02:56:05.309Z,18.23
2018-03-16T02:58:33.801Z,18.93
2018-03-16T03:01:02.814Z,19.70
2018-03-16T03:03:31.060Z,19.37
2018-03-16T03:05:59.606Z,19.83
2018-03-16T03:08:27.850Z,19.90
2018-03-16T03:10:56.892Z,19.40
2018-03-16T03:13:25.197Z,18.63
2018-03-16T03:15:53.441Z,21.37
2018-03-16T03:18:21.689Z,19.67
2018-03-16T03:20:50.167Z,18.43
2018-03-16T03:23:18.400Z,19.40
2018-03-16T03:25:46.645Z,21.10
2018-03-16T03:28:14.909Z,18.97
2018-03-16T03:30:43.158Z,19.70
2018-03-16T03:33:11.397Z,19.13
2018-03-16T03:35:39.664Z,20.90
2018-03-16T03:38:07.908Z,20.43
2018-03-16T03:40:36.148Z,19.50
2018-03-16T03:43:04.814Z,19.27
2018-03-16T03:45:33.061Z,19.10
2018-03-16T03:48:01.913Z,20.63
2018-03-16T03:50:31.922Z,20.63
2018-03-16T03:53:00.170Z,19.70
2018-03-16T03:55:28.418Z,20.73
2018-03-16T03:57:56.685Z,18.90
2018-03-16T04:00:24.924Z,18.77
2018-03-16T04:02:53.163Z,19.27
2018-03-16T04:05:22.226Z,21.10
2018-03-16T04:07:50.479Z,19.30
2018-03-16T04:10:19.485Z,20.90
2018-03-16T04:12:47.753Z,19.70
2018-03-16T04:15:15.998Z,20.40
2018-03-16T04:17:44.241Z,20.83
2018-03-16T04:20:12.505Z,17.97
2018-03-16T04:22:40.761Z,20.20
2018-03-16T04:25:09.765Z,22.53
2018-03-16T04:27:38.473Z,18.77
2018-03-16T04:30:06.726Z,18.27
2018-03-16T04:32:34.981Z,20.40
2018-03-16T04:35:03.233Z,18.60
2018-03-16T04:37:31.481Z,19.23
2018-03-16T04:39:59.726Z,22.03
2018-03-16T04:42:27.993Z,19.90
2018-03-16T04:44:56.241Z,20.90
2018-03-16T04:47:24.486Z,20.77
2018-03-16T04:49:53.022Z,21.10
2018-03-16T04:52:21.265Z,21.67
2018-03-16T04:54:49.504Z,21.10
2018-03-16T04:57:17.785Z,21.57
2018-03-16T04:59:46.024Z,22.00
2018-03-16T05:02:14.269Z,20.47
2018-03-16T05:04:42.545Z,21.47
2018-03-16T05:07:10.777Z,21.17
2018-03-16T05:09:39.030Z,19.80
2018-03-16T05:12:07.462Z,21.47
2018-03-16T05:14:35.705Z,23.97
2018-03-16T05:17:04.139Z,21.97
2018-03-16T05:19:32.413Z,22.37
2018-03-16T05:22:00.657Z,22.83
2018-03-16T05:24:28.902Z,24.97
2018-03-16T05:26:57.169Z,22.20
2018-03-16T05:29:26.186Z,23.30
2018-03-16T05:31:54.440Z,23.10
2018-03-16T05:34:23.185Z,22.33
2018-03-16T05:36:51.429Z,20.87
2018-03-16T05:39:19.686Z,23.10
2018-03-16T05:41:47.948Z,23.33
2018-03-16T05:44:16.194Z,22.67
2018-03-16T05:46:44.437Z,23.13
2018-03-16T05:49:12.702Z,23.13
2018-03-16T05:51:41.505Z,23.27
2018-03-16T05:54:09.745Z,22.63
2018-03-16T05:56:38.286Z,21.77
2018-03-16T05:59:06.543Z,22.93
2018-03-16T06:01:34.782Z,23.53
2018-03-16T06:04:03.985Z,22.97
2018-03-16T06:06:32.998Z,22.30
2018-03-16T06:09:02.021Z,22.03
2018-03-16T06:11:30.331Z,22.77
2018-03-16T06:13:58.537Z,25.03
2018-03-16T06:16:26.783Z,25.73
2018-03-16T06:18:55.233Z,24.20
2018-03-16T06:21:23.687Z,24.33
2018-03-16T06:23:51.988Z,25.13
2018-03-16T06:26:20.245Z,24.90
2018-03-16T06:28:48.493Z,24.10
2018-03-16T06:31:16.733Z,25.50
2018-03-16T06:33:45.001Z,27.30
2018-03-16T06:36:13.257Z,26.30
2018-03-16T06:38:41.581Z,24.87
2018-03-16T06:41:10.038Z,24.43
2018-03-16T06:43:38.285Z,23.50
2018-03-16T06:46:06.535Z,24.93
2018-03-16T06:48:34.797Z,24.17
2018-03-16T06:51:03.049Z,25.57
2018-03-16T06:53:31.594Z,23.60
2018-03-16T06:56:00.631Z,23.67
2018-03-16T06:58:28.958Z,24.47
2018-03-16T07:00:57.175Z,24.07
2018-03-16T07:03:26.065Z,22.90
2018-03-16T07:05:54.318Z,24.60
2018-03-16T07:08:22.569Z,26.13
2018-03-16T07:10:50.849Z,23.20
2018-03-16T07:13:19.850Z,25.63
2018-03-16T07:15:48.862Z,26.67
2018-03-16T07:18:17.129Z,24.57
2018-03-16T07:20:45.376Z,24.27
2018-03-16T07:23:13.667Z,25.27
2018-03-16T07:25:42.089Z,28.47
2018-03-16T07:28:10.417Z,26.80
2018-03-16T07:30:39.430Z,26.80
2018-03-16T07:33:08.726Z,27.20
2018-03-16T07:35:37.734Z,25.60
2018-03-16T07:38:05.981Z,24.17
2018-03-16T07:40:34.250Z,26.90
2018-03-16T07:43:03.261Z,25.13
2018-03-16T07:45:37.345Z,25.70
2018-03-16T07:48:06.317Z,27.53
2018-03-16T07:50:34.562Z,27.77
2018-03-16T07:53:02.849Z,27.17
2018-03-16T07:55:31.512Z,28.00
2018-03-16T07:58:01.259Z,24.23
2018-03-16T08:00:29.556Z,24.93
2018-03-16T08:02:57.836Z,21.97
2018-03-16T08:05:26.077Z,20.60
2018-03-16T08:07:54.986Z,21.30
2018-03-16T08:10:23.274Z,22.00
2018-03-16T08:12:51.681Z,20.20
2018-03-16T08:15:20.773Z,20.33
2018-03-16T08:17:48.989Z,21.03
2018-03-16T08:20:17.249Z,19.63
2018-03-16T08:22:45.521Z,18.67
2018-03-16T08:25:14.537Z,20.23
2018-03-16T08:27:43.406Z,20.80
2018-03-16T08:30:11.941Z,20.40
2018-03-16T08:32:40.228Z,22.40
2018-03-16T08:35:08.573Z,21.57
2018-03-16T08:37:36.849Z,19.97
2018-03-16T08:40:05.102Z,21.80
2018-03-16T08:42:34.725Z,20.50
2018-03-16T08:45:03.770Z,22.37
2018-03-16T08:47:32.033Z,22.87
2018-03-16T08:50:00.426Z,16.70
2018-03-16T08:52:28.880Z,17.80
2018-03-16T08:54:57.133Z,16.00
2018-03-16T08:57:27.088Z,18.07
2018-03-16T08:59:55.353Z,15.83
2018-03-16T09:02:24.574Z,15.50
2018-03-16T09:04:52.825Z,14.77
2018-03-16T09:07:21.102Z,14.80
2018-03-16T09:09:49.412Z,13.83
2018-03-16T09:12:18.071Z,13.60
2018-03-16T09:14:46.445Z,13.50
2018-03-16T09:17:14.689Z,12.30
2018-03-16T09:19:43.190Z,10.63
2018-03-16T09:22:11.465Z,10.60
2018-03-16T09:24:39.733Z,11.87
2018-03-16T09:27:08.002Z,11.40
2018-03-16T09:29:38.225Z,10.97
2018-03-16T09:32:06.477Z,11.90
2018-03-16T09:34:34.832Z,11.57
2018-03-16T09:37:03.399Z,10.90
2018-03-16T09:39:31.697Z,10.70
2018-03-16T09:41:59.930Z,12.00
2018-03-16T09:44:28.206Z,11.57
2018-03-16T09:46:56.481Z,10.43
2018-03-16T09:49:24.745Z,11.27
2018-03-16T09:51:53.054Z,12.83
2018-03-16T09:54:21.321Z,12.63
2018-03-16T09:56:49.570Z,10.03
2018-03-16T09:59:18.593Z,10.20
2018-03-16T10:01:46.876Z,8.83
2018-03-16T10:04:15.145Z,9.80
2018-03-16T10:06:43.412Z,9.40
2018-03-16T10:09:11.661Z,8.60
2018-03-16T10:11:40.685Z,7.67
2018-03-16T10:14:08.963Z,8.97
2018-03-16T10:16:37.462Z,8.57
2018-03-16T10:19:05.725Z,7.90
2018-03-16T10:21:34.217Z,6.10
2018-03-16T10:24:02.458Z,7.17
2018-03-16T10:26:30.698Z,7.53
2018-03-16T10:28:59.089Z,7.33
2018-03-16T10:31:27.357Z,7.30
2018-03-16T10:33:55.601Z,6.80
2018-03-16T10:36:23.866Z,6.23
2018-03-16T10:38:52.117Z,6.30
2018-03-16T10:41:20.361Z,6.50
2018-03-16T10:43:49.025Z,6.33
2018-03-16T10:46:17.281Z,5.23
2018-03-16T10:48:45.522Z,5.67
2018-03-16T10:51:13.797Z,5.50
2018-03-16T10:53:42.801Z,5.90
2018-03-16T10:56:11.821Z,5.07
2018-03-16T10:58:40.094Z,4.77
2018-03-16T11:01:15.438Z,4.67
2018-03-16T11:03:49.426Z,6.20
2018-03-16T11:06:23.357Z,5.50
2018-03-16T11:08:51.637Z,5.30
2018-03-16T11:11:19.881Z,7.43
2018-03-16T11:13:48.898Z,3.90
2018-03-16T11:16:17.152Z,3.90
2018-03-16T11:18:45.400Z,3.80
2018-03-16T11:21:13.638Z,4.17
2018-03-16T11:23:42.129Z,3.30
2018-03-16T11:26:10.369Z,3.47
2018-03-16T11:28:38.608Z,4.13
2018-03-16T11:31:06.880Z,2.87
2018-03-16T11:33:35.117Z,3.67
2018-03-16T11:36:03.362Z,3.83
2018-03-16T11:38:32.390Z,4.13
2018-03-16T11:41:00.734Z,3.60
2018-03-16T11:43:30.929Z,2.90
2018-03-16T11:45:59.693Z,2.60
2018-03-16T11:48:27.930Z,3.00
2018-03-16T11:50:56.173Z,2.60
2018-03-16T11:53:24.429Z,2.73
2018-03-16T11:55:52.673Z,3.67
2018-03-16T11:58:20.913Z,2.60
2018-03-16T12:00:49.178Z,2.83
2018-03-16T12:03:17.693Z,2.53
2018-03-16T12:05:46.717Z,2.53
2018-03-16T12:08:15.413Z,2.70
2018-03-16T12:10:43.653Z,2.40
2018-03-16T12:13:11.895Z,2.50
2018-03-16T12:15:40.156Z,2.33
2018-03-16T12:18:08.390Z,2.50
2018-03-16T12:20:36.625Z,2.90
2018-03-16T12:23:04.899Z,2.60
2018-03-16T12:25:33.142Z,2.80
2018-03-16T12:28:01.390Z,2.60
2018-03-16T12:30:30.153Z,3.37
2018-03-16T12:32:58.408Z,2.40
2018-03-16T12:35:26.637Z,1.80
2018-03-16T12:37:54.897Z,2.00
2018-03-16T12:40:23.137Z,2.47
2018-03-16T12:42:51.410Z,2.33
2018-03-16T12:45:21.473Z,3.40
2018-03-16T12:47:49.717Z,2.10
2018-03-16T12:50:17.949Z,2.47
2018-03-16T12:52:46.497Z,2.20
2018-03-16T12:55:15.564Z,2.80
2018-03-16T12:57:43.801Z,2.50
2018-03-16T13:00:12.088Z,2.00
2018-03-16T13:02:40.337Z,2.27
2018-03-16T13:05:09.313Z,2.20
2018-03-16T13:07:37.594Z,2.43
2018-03-16T13:10:05.837Z,2.70
2018-03-16T13:12:34.073Z,2.03
2018-03-16T13:15:02.573Z,2.33
2018-03-16T13:17:30.911Z,2.40
2018-03-16T13:19:59.921Z,2.30
2018-03-16T13:22:28.190Z,2.23
2018-03-16T13:24:56.741Z,1.90
2018-03-16T13:27:25.050Z,2.60
2018-03-16T13:29:53.278Z,1.90
2018-03-16T13:32:21.666Z,1.90
2018-03-16T13:34:49.899Z,2.07
2018-03-16T13:37:18.606Z,2.30
2018-03-16T13:39:46.837Z,2.67
2018-03-16T13:42:15.081Z,2.60
2018-03-16T13:44:43.348Z,2.50
2018-03-16T13:47:11.618Z,2.10
2018-03-16T13:49:39.838Z,2.40
2018-03-16T13:52:08.865Z,2.37
2018-03-16T13:54:37.110Z,2.10
2018-03-16T13:57:05.351Z,2.03
2018-03-16T13:59:33.665Z,1.40
2018-03-16T14:02:02.719Z,1.70
2018-03-16T14:04:30.947Z,1.70
2018-03-16T14:06:59.718Z,1.50
2018-03-16T14:09:28.717Z,1.80
2018-03-16T14:11:57.733Z,1.93
2018-03-16T14:14:25.998Z,1.57
2018-03-16T14:16:54.237Z,1.67
2018-03-16T14:19:22.490Z,1.80
2018-03-16T14:21:51.261Z,1.93
2018-03-16T14:24:19.506Z,2.43
2018-03-16T14:26:47.742Z,1.90
2018-03-16T14:29:16.004Z,2.67
2018-03-16T14:31:44.249Z,2.20
2018-03-16T14:34:12.513Z,2.07
2018-03-16T14:36:41.542Z,2.07
2018-03-16T14:39:09.782Z,2.00
2018-03-16T14:41:38.025Z,2.20
2018-03-16T14:44:07.161Z,1.87
2018-03-16T14:46:35.593Z,2.10
2018-03-16T14:49:03.833Z,2.83
2018-03-16T14:51:32.106Z,2.30
2018-03-16T14:54:00.554Z,3.10
2018-03-16T14:56:28.774Z,2.80
2018-03-16T14:58:57.046Z,2.87
2018-03-16T15:01:25.286Z,3.07
2018-03-16T15:03:53.768Z,3.60
2018-03-16T15:06:23.186Z,3.03
2018-03-16T15:08:51.685Z,3.57
2018-03-16T15:11:19.929Z,2.80
2018-03-16T15:13:48.230Z,2.57
2018-03-16T15:16:16.424Z,3.30
2018-03-16T15:18:44.676Z,3.30
2018-03-16T15:21:12.937Z,3.03
2018-03-16T15:23:41.177Z,3.43
2018-03-16T15:26:09.428Z,3.20
2018-03-16T15:28:37.834Z,3.30
2018-03-16T15:31:06.316Z,3.20
2018-03-16T15:33:34.544Z,3.50
2018-03-16T15:36:03.565Z,2.93
2018-03-16T15:38:31.806Z,3.50
2018-03-16T15:41:00.046Z,3.30
2018-03-16T15:43:28.314Z,3.50
2018-03-16T15:45:56.561Z,3.43
2018-03-16T15:48:24.858Z,3.63
2018-03-16T15:50:53.847Z,3.37
2018-03-16T15:53:22.138Z,3.83
2018-03-16T15:55:50.522Z,3.13
2018-03-16T15:58:18.813Z,3.40
2018-03-16T16:00:47.049Z,3.13
2018-03-16T16:03:15.290Z,3.03
2018-03-16T16:05:43.778Z,3.47
2018-03-16T16:08:12.791Z,3.17
2018-03-16T16:10:41.444Z,3.03
2018-03-16T16:13:12.017Z,3.40
2018-03-16T16:15:40.262Z,3.60
2018-03-16T16:18:08.706Z,3.37
2018-03-16T16:20:37.115Z,3.33
2018-03-16T16:23:07.299Z,3.50
2018-03-16T16:25:35.690Z,3.50
2018-03-16T16:28:03.962Z,3.20
2018-03-16T16:30:32.206Z,3.70
2018-03-16T16:33:00.446Z,3.40
2018-03-16T16:35:28.969Z,3.17
2018-03-16T16:37:57.217Z,3.37
2018-03-16T16:40:26.273Z,3.30
2018-03-16T16:42:54.548Z,3.33
2018-03-16T16:45:22.812Z,4.30
2018-03-16T16:47:51.046Z,3.30
2018-03-16T16:50:19.368Z,3.40
2018-03-16T16:52:48.781Z,3.93
2018-03-16T16:55:18.142Z,3.33
2018-03-16T16:57:46.845Z,2.90
2018-03-16T17:00:15.141Z,2.77
2018-03-16T17:02:43.730Z,3.13
2018-03-16T17:05:13.150Z,2.73
2018-03-16T17:07:41.505Z,2.93
2018-03-16T17:10:09.740Z,3.17
2018-03-16T17:12:38.322Z,2.73
2018-03-16T17:15:07.153Z,2.60
2018-03-16T17:17:35.425Z,2.67
2018-03-16T17:20:04.709Z,2.93
2018-03-16T17:22:33.018Z,2.40
2018-03-16T17:25:01.283Z,3.00
2018-03-16T17:27:29.811Z,3.47
2018-03-16T17:29:58.041Z,3.23
2018-03-16T17:32:26.284Z,3.17
2018-03-16T17:34:54.807Z,3.73
2018-03-16T17:37:23.039Z,4.23
2018-03-16T17:39:51.507Z,4.73
2018-03-16T17:42:20.126Z,5.03
2018-03-16T17:44:48.429Z,4.10
2018-03-16T17:47:16.669Z,3.80
2018-03-16T17:49:47.068Z,4.10
2018-03-16T17:52:17.257Z,4.50
2018-03-16T17:54:45.634Z,3.60
2018-03-16T17:57:13.901Z,3.10
2018-03-16T17:59:42.587Z,3.47
2018-03-16T18:02:10.808Z,2.90
2018-03-16T18:04:40.025Z,2.90
2018-03-16T18:07:08.269Z,3.10
2018-03-16T18:09:36.513Z,2.40
2018-03-16T18:12:04.773Z,2.30
2018-03-16T18:14:33.016Z,2.40
2018-03-16T18:17:02.022Z,2.60
2018-03-16T18:19:30.277Z,1.77
2018-03-16T18:21:58.717Z,1.50
2018-03-16T18:24:27.113Z,1.73
2018-03-16T18:26:55.562Z,1.37
2018-03-16T18:29:23.895Z,1.37
2018-03-16T18:31:53.057Z,1.83
2018-03-16T18:34:22.486Z,1.90
2018-03-16T18:36:52.209Z,1.83
2018-03-16T18:39:21.262Z,1.67
2018-03-16T18:41:49.510Z,1.93
2018-03-16T18:44:17.836Z,2.00
2018-03-16T18:46:46.114Z,3.50
2018-03-16T18:49:14.670Z,4.27
2018-03-16T18:51:42.976Z,4.33
2018-03-16T18:54:11.210Z,4.37
2018-03-16T18:56:39.482Z,4.27
2018-03-16T18:59:07.726Z,4.90
2018-03-16T19:01:36.778Z,5.20
2018-03-16T19:04:05.037Z,5.10
2018-03-16T19:06:33.279Z,5.47
2018-03-16T19:09:02.287Z,4.70
2018-03-16T19:11:30.683Z,4.40
2018-03-16T19:13:59.002Z,4.90
2018-03-16T19:16:27.257Z,4.90
2018-03-16T19:18:56.687Z,5.17
2018-03-16T19:21:24.926Z,4.87
2018-03-16T19:23:54.343Z,4.77
2018-03-16T19:26:22.604Z,5.00
2018-03-16T19:28:52.044Z,4.97
2018-03-16T19:31:20.285Z,5.10
2018-03-16T19:33:48.867Z,5.17
2018-03-16T19:36:17.112Z,5.30
2018-03-16T19:38:45.342Z,4.80
2018-03-16T19:41:13.593Z,3.40
2018-03-16T19:43:41.840Z,3.03
2018-03-16T19:46:10.146Z,3.47
2018-03-16T19:48:38.467Z,3.47
2018-03-16T19:51:06.657Z,4.00
2018-03-16T19:53:35.096Z,3.30
2018-03-16T19:56:03.458Z,4.40
2018-03-16T19:58:31.694Z,3.80
2018-03-16T20:01:00.699Z,3.90
2018-03-16T20:03:29.718Z,3.83
2018-03-16T20:05:57.957Z,4.23
2018-03-16T20:08:26.393Z,4.27
2018-03-16T20:10:54.654Z,4.10
2018-03-16T20:13:24.075Z,4.23
2018-03-16T20:15:52.314Z,4.80
2018-03-16T20:18:20.917Z,5.03
2018-03-16T20:20:49.150Z,5.30
2018-03-16T20:23:18.514Z,5.60
2018-03-16T20:25:46.770Z,6.00
2018-03-16T20:28:15.038Z,5.47
2018-03-16T20:30:43.345Z,6.00
2018-03-16T20:33:11.616Z,6.60
2018-03-16T20:35:39.842Z,6.00
2018-03-16T20:38:08.848Z,6.53
2018-03-16T20:40:38.001Z,7.40
2018-03-16T20:43:06.233Z,6.93
2018-03-16T20:45:34.502Z,7.00
2018-03-16T20:48:02.991Z,7.20
2018-03-16T20:50:31.977Z,7.10
2018-03-16T20:53:00.293Z,7.87
2018-03-16T20:55:28.578Z,6.37
2018-03-16T20:57:56.813Z,7.50
2018-03-16T21:00:25.093Z,8.57
2018-03-16T21:02:53.585Z,9.90
2018-03-16T21:05:22.805Z,10.57
2018-03-16T21:07:51.186Z,9.93
2018-03-16T21:10:19.610Z,9.57
2018-03-16T21:12:48.616Z,9.93
2018-03-16T21:15:17.141Z,10.27
2018-03-16T21:17:45.428Z,9.43
2018-03-16T21:20:15.853Z,9.83
2018-03-16T21:22:44.102Z,11.30
2018-03-16T21:25:12.563Z,11.90
2018-03-16T21:27:40.999Z,10.93
2018-03-16T21:30:09.260Z,11.77
2018-03-16T21:32:37.513Z,10.40
2018-03-16T21:35:05.826Z,11.87
2018-03-16T21:37:34.066Z,8.90
2018-03-16T21:40:02.673Z,12.07
2018-03-16T21:42:30.912Z,11.13
2018-03-16T21:44:59.149Z,11.23
2018-03-16T21:47:28.714Z,12.63
2018-03-16T21:49:56.975Z,12.60
2018-03-16T21:52:25.398Z,12.10
2018-03-16T21:54:53.805Z,12.63
2018-03-16T21:57:22.965Z,12.70
2018-03-16T21:59:51.203Z,13.70
2018-03-16T22:02:19.474Z,13.43
2018-03-16T22:04:47.717Z,13.57
2018-03-16T22:07:15.975Z,14.73
2018-03-16T22:09:44.450Z,14.97
2018-03-16T22:12:12.690Z,14.10
2018-03-16T22:14:40.953Z,15.20
2018-03-16T22:17:09.225Z,14.70
2018-03-16T22:19:38.522Z,15.40
2018-03-16T22:22:07.547Z,14.23
2018-03-16T22:24:35.798Z,14.13
2018-03-16T22:27:04.039Z,15.83
2018-03-16T22:29:32.281Z,16.77
2018-03-16T22:32:00.779Z,15.70
2018-03-16T22:34:29.032Z,15.00
2018-03-16T22:36:57.272Z,14.77
2018-03-16T22:39:25.551Z,15.73
2018-03-16T22:41:54.622Z,16.90
2018-03-16T22:44:22.853Z,19.03
2018-03-16T22:46:51.299Z,18.60
2018-03-16T22:49:20.332Z,17.53
2018-03-16T22:51:48.848Z,18.40
2018-03-16T22:54:17.446Z,18.03
2018-03-16T22:56:45.709Z,18.00
2018-03-16T22:59:13.966Z,16.57
2018-03-16T23:01:42.240Z,18.90
2018-03-16T23:04:10.612Z,18.40
2018-03-16T23:06:38.849Z,18.67
2018-03-16T23:09:07.126Z,16.97
2018-03-16T23:11:35.371Z,16.50
2018-03-16T23:14:04.565Z,20.73
2018-03-16T23:16:33.134Z,19.67
2018-03-16T23:19:01.402Z,19.20
2018-03-16T23:21:30.145Z,18.70
2018-03-16T23:23:59.310Z,19.43
2018-03-16T23:26:27.546Z,17.57
2018-03-16T23:28:55.799Z,16.83
2018-03-16T23:31:24.057Z,16.90
2018-03-16T23:33:52.298Z,15.60
2018-03-16T23:36:20.708Z,16.60
2018-03-16T23:38:49.484Z,15.70
2018-03-16T23:41:17.758Z,16.27
2018-03-16T23:43:46.003Z,17.60
2018-03-16T23:46:14.394Z,17.10
2018-03-16T23:48:42.621Z,21.20
2018-03-16T23:51:11.788Z,22.50
2018-03-16T23:53:40.044Z,17.47
2018-03-16T23:56:08.315Z,18.37
2018-03-16T23:58:36.729Z,18.20
